Roatan, Honduras
Current Conditions -  °F | °C
As of 12:00 PM on Friday 19 Dec 2014 (Local Time) from MHLC Reporting Station
Broken Clouds Broken Clouds  
Wind Chill: 81°   Ceiling: 8000
Heat Index: 84°   Visibility: 6mi
Dew Point: 70°   Wind: 5mph
Humidity: 70%   Direction: 280°W
Pressure: 29.94"   Gusts: NA
Location:  16.33°N, 86.52°W
Report Text: MHLC 191800Z 28004KT 9999 SCT024 BKN080 27/21 Q1014 A2995NOSIG
Loading
Personal Weather Stations






























Interactive Weather Map New forecast layout! Learn more

10-Day Weather Forecast

Advertisements
Track Severe Weather on mobile